Time;durP1;ratioP1;P1;durP2;ratioP2;P2;SDS_P1;SDS_P2;PMS_P1;PMS_P2;Temp;Humidity;BMP_temperature;BMP_pressure;BME280_temperature;BME280_humidity;BME280_pressure;Samples;Min_cycle;Max_cycle;Signal;HPM_P1;HPM_P2
2024/01/05 00:00:50;;;;;;;6.07;3.40;;;;;;;;;;5092729;27;40281;-71
2024/01/05 00:03:18;;;;;;;7.15;3.50;;;;;;;;;;5104574;27;41637;-71
2024/01/05 00:05:46;;;;;;;7.20;3.70;;;;;;;;;;5103147;28;40120;-70
2024/01/05 00:08:14;;;;;;;6.53;3.55;;;;;;;;;;5105537;27;41921;-70
2024/01/05 00:10:42;;;;;;;8.73;3.60;;;;;;;;;;5096321;27;41937;-69
2024/01/05 00:13:10;;;;;;;5.82;3.50;;;;;;;;;;5100752;27;40320;-71
2024/01/05 00:15:39;;;;;;;6.30;3.05;;;;;;;;;;5100309;27;41383;-69
2024/01/05 00:18:07;;;;;;;7.65;3.78;;;;;;;;;;5105157;27;42052;-72
2024/01/05 00:20:35;;;;;;;7.85;3.65;;;;;;;;;;5111308;27;41428;-70
2024/01/05 00:23:03;;;;;;;9.27;3.85;;;;;;;;;;5106294;27;41294;-71
2024/01/05 00:25:31;;;;;;;5.90;3.17;;;;;;;;;;5106465;27;42279;-70
2024/01/05 00:27:59;;;;;;;9.05;3.20;;;;;;;;;;5107270;27;42741;-71
2024/01/05 00:30:27;;;;;;;10.80;3.83;;;;;;;;;;5107553;28;42624;-70
2024/01/05 00:32:57;;;;;;;7.25;3.65;;;;;;;;;;5113758;27;41226;-70
2024/01/05 00:35:25;;;;;;;8.18;3.85;;;;;;;;;;5106020;27;41596;-70
2024/01/05 00:37:53;;;;;;;7.93;3.38;;;;;;;;;;5108255;27;41904;-71
2024/01/05 00:40:21;;;;;;;8.05;3.25;;;;;;;;;;5107184;27;40245;-73
2024/01/05 00:42:49;;;;;;;8.02;3.28;;;;;;;;;;5106758;27;42608;-68
2024/01/05 00:45:17;;;;;;;6.97;3.38;;;;;;;;;;5116189;27;43110;-69
2024/01/05 00:47:45;;;;;;;4.55;2.80;;;;;;;;;;5118538;27;42628;-69
2024/01/05 00:50:15;;;;;;;7.35;3.58;;;;;;;;;;5109162;27;42840;-69
2024/01/05 00:52:42;;;;;;;6.38;2.90;;;;;;;;;;5104274;28;39817;-69
2024/01/05 00:55:10;;;;;;;7.82;3.38;;;;;;;;;;5095458;27;42659;-68
2024/01/05 00:57:38;;;;;;;5.82;3.10;;;;;;;;;;5088019;27;43774;-68
2024/01/05 01:00:08;;;;;;;7.72;3.20;;;;;;;;;;5101325;27;41253;-68
2024/01/05 01:02:37;;;;;;;5.70;3.33;;;;;;;;;;5116442;27;43173;-69
2024/01/05 01:05:05;;;;;;;6.85;2.60;;;;;;;;;;5106582;27;42208;-68
2024/01/05 01:07:34;;;;;;;5.72;3.33;;;;;;;;;;5109339;28;40061;-68
2024/01/05 01:10:02;;;;;;;5.38;2.92;;;;;;;;;;5090393;28;41029;-69
2024/01/05 01:12:30;;;;;;;5.03;2.80;;;;;;;;;;5109741;27;39957;-70
2024/01/05 01:14:58;;;;;;;5.32;2.38;;;;;;;;;;5101508;27;41696;-68
2024/01/05 01:17:26;;;;;;;8.65;2.92;;;;;;;;;;5109618;27;42071;-68
2024/01/05 01:19:54;;;;;;;5.85;2.97;;;;;;;;;;5111817;27;40384;-69
2024/01/05 01:22:22;;;;;;;5.82;2.75;;;;;;;;;;5112490;27;41433;-69
2024/01/05 01:24:51;;;;;;;5.57;3.20;;;;;;;;;;5104443;27;41929;-69
2024/01/05 01:27:19;;;;;;;5.10;2.80;;;;;;;;;;5112345;27;39826;-69
2024/01/05 01:29:48;;;;;;;5.22;2.80;;;;;;;;;;5109295;27;41173;-69
2024/01/05 01:32:16;;;;;;;7.28;2.97;;;;;;;;;;5097228;27;41128;-68
2024/01/05 01:34:44;;;;;;;5.97;3.00;;;;;;;;;;5101350;27;41509;-69
2024/01/05 01:37:12;;;;;;;5.13;3.22;;;;;;;;;;5109608;27;41729;-68
2024/01/05 01:39:40;;;;;;;5.43;2.97;;;;;;;;;;5109765;27;41399;-68
2024/01/05 01:42:09;;;;;;;7.60;2.90;;;;;;;;;;5105205;27;41298;-68
2024/01/05 01:44:37;;;;;;;5.43;3.17;;;;;;;;;;5108864;27;41644;-68
2024/01/05 01:47:05;;;;;;;6.47;2.58;;;;;;;;;;5108715;27;41992;-69
2024/01/05 01:49:34;;;;;;;6.05;3.10;;;;;;;;;;5108908;28;42321;-68
2024/01/05 01:52:02;;;;;;;4.80;2.95;;;;;;;;;;5110340;28;42042;-69
2024/01/05 01:54:32;;;;;;;4.55;2.90;;;;;;;;;;5108938;28;42450;-68
2024/01/05 01:57:02;;;;;;;5.75;3.13;;;;;;;;;;5107095;27;42499;-69
2024/01/05 01:59:32;;;;;;;5.88;2.95;;;;;;;;;;5109281;28;39814;-68
2024/01/05 02:02:00;;;;;;;4.25;2.80;;;;;;;;;;5112322;27;41520;-69
2024/01/05 02:04:28;;;;;;;5.03;2.70;;;;;;;;;;5119091;27;42713;-68
2024/01/05 02:06:56;;;;;;;4.65;2.60;;;;;;;;;;5106727;27;41037;-69
2024/01/05 02:09:24;;;;;;;6.03;2.65;;;;;;;;;;5104387;27;42573;-68
2024/01/05 02:11:52;;;;;;;5.78;3.10;;;;;;;;;;5105463;27;41939;-69
2024/01/05 02:14:20;;;;;;;5.28;2.63;;;;;;;;;;5102922;27;41351;-69
2024/01/05 02:16:49;;;;;;;4.28;2.67;;;;;;;;;;5104107;27;43163;-69
2024/01/05 02:19:17;;;;;;;4.03;2.80;;;;;;;;;;5105010;27;40847;-69
2024/01/05 02:21:46;;;;;;;8.68;2.95;;;;;;;;;;5108577;28;41729;-68
2024/01/05 02:24:16;;;;;;;3.80;2.80;;;;;;;;;;5107734;27;42133;-68
2024/01/05 02:26:44;;;;;;;3.85;2.65;;;;;;;;;;5108651;27;40360;-68
2024/01/05 02:29:13;;;;;;;5.63;2.75;;;;;;;;;;5108461;27;41469;-69
2024/01/05 02:31:41;;;;;;;6.30;2.75;;;;;;;;;;5099589;27;41698;-68
2024/01/05 02:34:09;;;;;;;3.63;2.38;;;;;;;;;;5108985;27;40179;-69
2024/01/05 02:36:37;;;;;;;5.22;2.80;;;;;;;;;;5121849;27;41253;-68
2024/01/05 02:39:05;;;;;;;5.60;2.92;;;;;;;;;;5074751;27;39338;-68
2024/01/05 02:41:34;;;;;;;4.07;2.72;;;;;;;;;;5109254;27;41786;-68
2024/01/05 02:44:02;;;;;;;7.18;3.30;;;;;;;;;;5107511;27;41772;-68
2024/01/05 02:46:33;;;;;;;5.15;2.80;;;;;;;;;;5107335;27;40250;-68
2024/01/05 02:49:01;;;;;;;3.95;2.58;;;;;;;;;;5107997;27;41597;-69
2024/01/05 02:51:29;;;;;;;5.10;2.60;;;;;;;;;;5107659;27;42667;-69
2024/01/05 02:53:57;;;;;;;6.15;2.60;;;;;;;;;;5108690;28;39990;-68
2024/01/05 02:56:25;;;;;;;5.22;2.80;;;;;;;;;;5118253;27;42572;-69
2024/01/05 02:58:55;;;;;;;4.45;2.60;;;;;;;;;;5097233;27;39631;-69
2024/01/05 03:01:23;;;;;;;4.78;2.22;;;;;;;;;;5113070;27;41610;-69
2024/01/05 03:03:51;;;;;;;3.92;2.50;;;;;;;;;;5115178;27;42301;-68
2024/01/05 03:06:19;;;;;;;5.20;2.50;;;;;;;;;;5114186;27;40425;-69
2024/01/05 03:08:47;;;;;;;5.03;2.78;;;;;;;;;;5107780;27;42626;-68
2024/01/05 03:11:15;;;;;;;4.47;2.80;;;;;;;;;;5108285;27;42052;-69
2024/01/05 03:13:43;;;;;;;5.63;2.42;;;;;;;;;;5111109;27;40625;-68
2024/01/05 03:16:13;;;;;;;3.97;2.35;;;;;;;;;;5105025;27;41435;-69
2024/01/05 03:18:41;;;;;;;4.72;2.60;;;;;;;;;;5107340;27;43698;-68
2024/01/05 03:21:09;;;;;;;4.47;2.53;;;;;;;;;;5096901;27;43269;-69
2024/01/05 03:23:37;;;;;;;4.00;2.65;;;;;;;;;;5103230;27;42076;-69
2024/01/05 03:26:08;;;;;;;6.32;2.60;;;;;;;;;;5089437;28;39467;-68
2024/01/05 03:28:37;;;;;;;4.25;2.60;;;;;;;;;;5118517;27;42212;-68
2024/01/05 03:31:05;;;;;;;4.15;2.28;;;;;;;;;;5114866;27;43064;-68
2024/01/05 03:33:35;;;;;;;4.05;2.33;;;;;;;;;;5113980;27;41408;-69
2024/01/05 03:36:03;;;;;;;4.25;2.30;;;;;;;;;;5101202;27;41159;-69
2024/01/05 03:38:31;;;;;;;4.85;2.30;;;;;;;;;;5100265;27;41795;-68
2024/01/05 03:40:59;;;;;;;5.35;2.53;;;;;;;;;;5106317;27;40923;-68
2024/01/05 03:43:27;;;;;;;4.22;2.47;;;;;;;;;;5107668;27;42689;-68
2024/01/05 03:45:55;;;;;;;5.28;2.38;;;;;;;;;;5094732;27;41116;-69
2024/01/05 03:48:23;;;;;;;4.32;2.40;;;;;;;;;;5114166;27;41634;-69
2024/01/05 03:50:52;;;;;;;4.88;2.38;;;;;;;;;;5111970;27;42846;-69
2024/01/05 03:53:21;;;;;;;5.55;2.85;;;;;;;;;;5111218;27;40883;-68
2024/01/05 03:55:49;;;;;;;5.20;2.47;;;;;;;;;;5106615;27;41647;-68
2024/01/05 03:58:17;;;;;;;4.40;2.70;;;;;;;;;;5106616;27;42757;-69
2024/01/05 04:00:45;;;;;;;4.28;2.35;;;;;;;;;;5101078;27;38485;-68
2024/01/05 04:03:13;;;;;;;4.53;2.33;;;;;;;;;;5095099;27;42263;-69
2024/01/05 04:05:41;;;;;;;6.28;2.65;;;;;;;;;;5107414;27;41488;-68
2024/01/05 04:08:10;;;;;;;5.32;2.35;;;;;;;;;;5104847;27;42345;-68
2024/01/05 04:10:38;;;;;;;4.93;2.10;;;;;;;;;;5109856;27;42777;-68
2024/01/05 04:13:06;;;;;;;6.00;2.50;;;;;;;;;;5110734;27;41243;-68
2024/01/05 04:15:35;;;;;;;4.72;2.25;;;;;;;;;;5097177;27;42140;-69
2024/01/05 04:18:04;;;;;;;4.28;2.10;;;;;;;;;;5109694;27;41732;-68
2024/01/05 04:20:32;;;;;;;3.97;2.20;;;;;;;;;;5110673;27;39985;-68
2024/01/05 04:23:00;;;;;;;4.25;2.30;;;;;;;;;;5102315;27;41661;-68
2024/01/05 04:25:30;;;;;;;4.88;2.53;;;;;;;;;;5105355;28;41903;-69
2024/01/05 04:27:58;;;;;;;3.30;2.05;;;;;;;;;;5096788;27;41374;-69
2024/01/05 04:30:26;;;;;;;3.53;1.85;;;;;;;;;;5109449;27;41524;-68
2024/01/05 04:32:54;;;;;;;4.28;1.98;;;;;;;;;;5109867;27;39930;-68
2024/01/05 04:35:22;;;;;;;3.72;1.95;;;;;;;;;;5110628;27;41291;-69
2024/01/05 04:37:50;;;;;;;3.13;2.25;;;;;;;;;;5108824;27;42797;-69
2024/01/05 04:40:18;;;;;;;3.55;2.10;;;;;;;;;;5110869;27;41220;-69
2024/01/05 04:42:47;;;;;;;4.25;2.30;;;;;;;;;;5110073;27;41551;-69
2024/01/05 04:45:16;;;;;;;4.50;2.00;;;;;;;;;;5105390;28;42648;-68
2024/01/05 04:47:46;;;;;;;4.53;2.03;;;;;;;;;;5109803;27;39933;-68
2024/01/05 04:50:14;;;;;;;3.20;1.80;;;;;;;;;;5097639;27;41871;-69
2024/01/05 04:52:42;;;;;;;3.50;1.92;;;;;;;;;;5109803;27;40996;-69
2024/01/05 04:55:14;;;;;;;4.05;2.22;;;;;;;;;;5109131;27;41011;-68
2024/01/05 04:57:42;;;;;;;3.28;1.60;;;;;;;;;;5122905;27;41883;-68
2024/01/05 05:00:15;;;;;;;3.80;2.08;;;;;;;;;;5124897;27;40926;-68
2024/01/05 05:02:43;;;;;;;3.42;1.98;;;;;;;;;;5110005;27;41668;-68
2024/01/05 05:05:11;;;;;;;3.63;1.75;;;;;;;;;;5111877;27;43217;-68
2024/01/05 05:07:39;;;;;;;5.75;2.15;;;;;;;;;;5110909;28;41510;-68
2024/01/05 05:10:08;;;;;;;2.75;1.80;;;;;;;;;;5097411;27;42682;-69
2024/01/05 05:12:35;;;;;;;3.80;1.80;;;;;;;;;;5120569;27;39857;-68
2024/01/05 05:15:04;;;;;;;3.58;1.90;;;;;;;;;;5102727;27;41936;-68
2024/01/05 05:17:33;;;;;;;5.45;1.95;;;;;;;;;;5105712;27;41800;-68
2024/01/05 05:20:01;;;;;;;4.13;2.20;;;;;;;;;;5097010;27;39769;-69
2024/01/05 05:22:29;;;;;;;6.20;2.15;;;;;;;;;;5109102;27;42668;-69
2024/01/05 05:24:57;;;;;;;3.35;2.13;;;;;;;;;;5109422;27;43147;-68
2024/01/05 05:27:25;;;;;;;3.28;1.67;;;;;;;;;;5098420;27;40586;-68
2024/01/05 05:29:53;;;;;;;3.63;1.60;;;;;;;;;;5120117;27;41569;-69
2024/01/05 05:32:21;;;;;;;4.97;1.85;;;;;;;;;;5123896;27;40064;-69
2024/01/05 05:34:52;;;;;;;4.38;2.00;;;;;;;;;;5109124;27;41603;-69
2024/01/05 05:37:20;;;;;;;3.42;2.17;;;;;;;;;;5108493;27;41965;-69
2024/01/05 05:39:48;;;;;;;4.40;2.13;;;;;;;;;;5109572;27;41149;-69
2024/01/05 05:42:16;;;;;;;3.25;1.95;;;;;;;;;;5108894;27;41591;-68
2024/01/05 05:44:44;;;;;;;4.88;1.92;;;;;;;;;;5109491;27;42153;-69
2024/01/05 05:47:12;;;;;;;4.25;2.00;;;;;;;;;;5109882;27;39849;-69
2024/01/05 05:49:40;;;;;;;3.25;1.60;;;;;;;;;;5109752;28;41724;-68
2024/01/05 05:52:09;;;;;;;4.63;1.80;;;;;;;;;;5109758;27;42737;-68
2024/01/05 05:54:37;;;;;;;4.47;1.77;;;;;;;;;;5109037;27;41280;-68
2024/01/05 05:57:07;;;;;;;3.33;1.73;;;;;;;;;;5109123;27;41683;-68
2024/01/05 05:59:36;;;;;;;4.05;1.88;;;;;;;;;;5108506;27;39861;-68
2024/01/05 06:02:03;;;;;;;3.80;1.70;;;;;;;;;;5109086;27;41279;-69
2024/01/05 06:04:31;;;;;;;4.03;1.58;;;;;;;;;;5109877;27;41546;-68
2024/01/05 06:06:59;;;;;;;3.13;1.77;;;;;;;;;;5109558;27;39816;-69
2024/01/05 06:09:29;;;;;;;5.43;2.17;;;;;;;;;;5106111;27;42226;-69
2024/01/05 06:11:57;;;;;;;3.38;1.55;;;;;;;;;;5105400;27;42059;-69
2024/01/05 06:14:25;;;;;;;5.53;1.70;;;;;;;;;;5081063;28;39634;-68
2024/01/05 06:16:53;;;;;;;2.95;1.60;;;;;;;;;;5094437;27;43172;-69
2024/01/05 06:19:21;;;;;;;4.38;1.77;;;;;;;;;;5096758;28;41297;-68
2024/01/05 06:21:49;;;;;;;4.60;1.95;;;;;;;;;;5107695;27;41850;-69
2024/01/05 06:24:17;;;;;;;2.90;1.83;;;;;;;;;;5102271;27;41978;-69
2024/01/05 06:26:46;;;;;;;3.03;1.50;;;;;;;;;;5108922;27;41396;-68
2024/01/05 06:29:14;;;;;;;3.78;1.70;;;;;;;;;;5107369;27;41268;-69
2024/01/05 06:31:42;;;;;;;4.90;1.55;;;;;;;;;;5107148;27;41784;-69
2024/01/05 06:34:10;;;;;;;5.38;1.85;;;;;;;;;;5108695;27;40269;-68
2024/01/05 06:36:38;;;;;;;2.95;1.75;;;;;;;;;;5108493;27;41168;-68
2024/01/05 06:39:09;;;;;;;3.40;1.70;;;;;;;;;;5108259;27;40373;-69
2024/01/05 06:41:37;;;;;;;4.05;2.30;;;;;;;;;;5115965;27;42609;-68
2024/01/05 06:44:06;;;;;;;2.42;1.80;;;;;;;;;;5107325;27;41746;-68
2024/01/05 06:46:34;;;;;;;3.53;1.90;;;;;;;;;;5106629;27;40032;-69
2024/01/05 06:49:03;;;;;;;7.82;1.77;;;;;;;;;;5108009;28;41755;-68
2024/01/05 06:51:36;;;;;;;4.03;2.05;;;;;;;;;;5105528;27;42035;-69
2024/01/05 06:54:04;;;;;;;3.17;1.63;;;;;;;;;;5105907;28;40014;-69
2024/01/05 06:56:33;;;;;;;2.80;1.55;;;;;;;;;;5105111;27;42806;-68
2024/01/05 06:59:01;;;;;;;4.45;2.05;;;;;;;;;;5108399;27;32815;-69
2024/01/05 07:01:31;;;;;;;5.57;1.65;;;;;;;;;;5108485;27;42312;-69
2024/01/05 07:03:59;;;;;;;4.35;1.75;;;;;;;;;;5108636;27;41558;-68
2024/01/05 07:06:27;;;;;;;5.10;2.00;;;;;;;;;;5106998;27;40001;-68
2024/01/05 07:08:55;;;;;;;3.45;1.67;;;;;;;;;;5107752;27;41273;-69
2024/01/05 07:11:23;;;;;;;4.18;1.48;;;;;;;;;;5107580;27;41726;-69
2024/01/05 07:13:51;;;;;;;2.42;1.52;;;;;;;;;;5107313;27;40139;-69
2024/01/05 07:16:19;;;;;;;4.40;2.03;;;;;;;;;;5107820;27;41741;-69
2024/01/05 07:18:48;;;;;;;3.70;2.03;;;;;;;;;;5107835;27;42816;-69
2024/01/05 07:21:17;;;;;;;3.65;1.77;;;;;;;;;;5107476;28;42176;-68
2024/01/05 07:23:45;;;;;;;3.25;1.52;;;;;;;;;;5106705;27;43167;-68
2024/01/05 07:26:13;;;;;;;3.42;1.85;;;;;;;;;;5093461;27;41802;-68
2024/01/05 07:28:41;;;;;;;3.28;1.75;;;;;;;;;;5087217;28;41262;-69
2024/01/05 07:31:10;;;;;;;3.22;1.48;;;;;;;;;;5115983;27;42082;-69
2024/01/05 07:33:38;;;;;;;3.22;1.42;;;;;;;;;;5108106;27;41198;-68
2024/01/05 07:36:07;;;;;;;3.83;1.60;;;;;;;;;;5096623;27;40931;-69
2024/01/05 07:38:36;;;;;;;6.07;1.70;;;;;;;;;;5107778;27;41994;-68
2024/01/05 07:41:04;;;;;;;3.63;1.80;;;;;;;;;;5102853;27;41293;-69
2024/01/05 07:43:32;;;;;;;5.40;1.70;;;;;;;;;;5107335;27;42071;-69
2024/01/05 07:46:03;;;;;;;2.63;1.52;;;;;;;;;;5106768;27;40264;-68
2024/01/05 07:48:32;;;;;;;2.88;1.52;;;;;;;;;;5113097;27;41396;-68
2024/01/05 07:51:02;;;;;;;2.55;1.30;;;;;;;;;;5104686;27;42168;-68
2024/01/05 07:53:32;;;;;;;3.72;1.70;;;;;;;;;;5107523;27;41495;-68
2024/01/05 07:56:00;;;;;;;3.83;1.50;;;;;;;;;;5105351;27;42673;-68
2024/01/05 07:58:28;;;;;;;2.35;1.33;;;;;;;;;;5107644;27;41253;-68
2024/01/05 08:00:56;;;;;;;3.47;1.70;;;;;;;;;;5106349;27;40418;-68
2024/01/05 08:03:24;;;;;;;3.55;1.50;;;;;;;;;;5122109;27;41606;-68
2024/01/05 08:05:52;;;;;;;1.83;1.30;;;;;;;;;;5117214;27;40277;-69
2024/01/05 08:08:20;;;;;;;4.18;1.67;;;;;;;;;;5111259;27;41388;-68
2024/01/05 08:10:49;;;;;;;2.70;1.23;;;;;;;;;;5107088;27;41536;-68
2024/01/05 08:13:19;;;;;;;3.47;1.38;;;;;;;;;;5107462;27;40452;-68
2024/01/05 08:15:47;;;;;;;3.42;1.25;;;;;;;;;;5093862;27;42574;-68
2024/01/05 08:18:15;;;;;;;4.22;1.45;;;;;;;;;;5100983;27;42902;-68
2024/01/05 08:20:43;;;;;;;2.88;1.25;;;;;;;;;;5103910;27;40918;-68
2024/01/05 08:23:12;;;;;;;3.17;1.20;;;;;;;;;;5109954;27;41123;-68
2024/01/05 08:25:40;;;;;;;2.30;1.05;;;;;;;;;;5102774;27;42781;-71
2024/01/05 08:28:09;;;;;;;9.15;1.63;;;;;;;;;;5107446;27;41597;-72
2024/01/05 08:30:39;;;;;;;8.38;1.63;;;;;;;;;;5111857;27;42773;-72
2024/01/05 08:33:07;;;;;;;2.15;1.20;;;;;;;;;;5096671;27;40044;-72
2024/01/05 08:35:35;;;;;;;5.10;1.60;;;;;;;;;;5110694;27;41595;-72
2024/01/05 08:38:04;;;;;;;3.63;1.08;;;;;;;;;;5085862;27;41882;-72
2024/01/05 08:40:32;;;;;;;2.92;1.08;;;;;;;;;;5099832;27;39755;-71
2024/01/05 08:43:00;;;;;;;6.18;1.73;;;;;;;;;;5109239;27;40879;-72
2024/01/05 08:45:29;;;;;;;10.25;1.50;;;;;;;;;;5107250;27;42656;-72
2024/01/05 08:48:00;;;;;;;4.28;0.98;;;;;;;;;;5112866;27;41230;-73
2024/01/05 08:50:28;;;;;;;3.67;1.20;;;;;;;;;;5109405;27;42952;-72
2024/01/05 08:52:56;;;;;;;2.72;1.17;;;;;;;;;;5108880;27;41446;-71
2024/01/05 08:55:24;;;;;;;4.55;1.42;;;;;;;;;;5102122;27;41556;-74
2024/01/05 08:57:52;;;;;;;5.55;1.83;;;;;;;;;;5094627;27;41587;-73
2024/01/05 09:00:21;;;;;;;8.20;1.48;;;;;;;;;;5100740;27;41231;-72
2024/01/05 09:02:52;;;;;;;3.72;1.50;;;;;;;;;;5110474;27;42152;-73
2024/01/05 09:05:20;;;;;;;3.00;1.42;;;;;;;;;;5103471;27;41814;-74
2024/01/05 09:07:48;;;;;;;2.88;1.10;;;;;;;;;;5112669;27;40947;-70
2024/01/05 09:10:16;;;;;;;2.78;1.13;;;;;;;;;;5109539;27;43135;-70
2024/01/05 09:12:44;;;;;;;3.78;1.17;;;;;;;;;;5109321;27;41177;-70
2024/01/05 09:15:13;;;;;;;2.80;1.13;;;;;;;;;;5101930;27;42244;-70
2024/01/05 09:17:41;;;;;;;3.13;1.13;;;;;;;;;;5109275;27;43719;-70
2024/01/05 09:20:12;;;;;;;5.93;1.20;;;;;;;;;;5106398;27;41946;-70
2024/01/05 09:22:40;;;;;;;3.15;0.75;;;;;;;;;;5090170;28;40685;-70
2024/01/05 09:25:09;;;;;;;6.07;1.20;;;;;;;;;;5105727;27;41933;-70
2024/01/05 09:27:37;;;;;;;4.75;1.00;;;;;;;;;;5104395;27;40161;-71
2024/01/05 09:30:06;;;;;;;2.42;1.20;;;;;;;;;;5110061;27;40942;-71
2024/01/05 09:32:34;;;;;;;5.20;0.85;;;;;;;;;;5104257;27;40603;-72
2024/01/05 09:35:02;;;;;;;3.17;1.38;;;;;;;;;;5092853;28;41848;-72
2024/01/05 09:37:32;;;;;;;2.33;0.75;;;;;;;;;;5092886;27;43248;-73
2024/01/05 09:40:00;;;;;;;8.13;1.15;;;;;;;;;;5093645;27;40067;-72
2024/01/05 09:42:28;;;;;;;6.28;1.00;;;;;;;;;;5097677;27;42424;-72
2024/01/05 09:44:56;;;;;;;3.70;1.10;;;;;;;;;;5114701;27;41751;-72
2024/01/05 09:47:24;;;;;;;2.92;0.95;;;;;;;;;;5101449;27;41031;-72
2024/01/05 09:49:51;;;;;;;5.18;1.08;;;;;;;;;;5115046;27;42666;-70
2024/01/05 09:52:21;;;;;;;4.55;0.90;;;;;;;;;;5097891;27;42600;-72
2024/01/05 09:54:50;;;;;;;6.93;1.38;;;;;;;;;;5109581;27;41669;-70
2024/01/05 09:57:21;;;;;;;6.78;0.90;;;;;;;;;;5118035;27;42918;-75
2024/01/05 09:59:49;;;;;;;3.30;1.25;;;;;;;;;;5093655;27;40992;-77
2024/01/05 10:02:18;;;;;;;3.13;1.10;;;;;;;;;;5104291;27;41424;-73
2024/01/05 10:04:46;;;;;;;2.13;0.77;;;;;;;;;;5107902;27;41730;-74
2024/01/05 10:07:15;;;;;;;2.10;0.60;;;;;;;;;;5109396;27;41099;-74
2024/01/05 10:09:51;;;;;;;2.28;0.70;;;;;;;;;;5107795;27;42660;-73
2024/01/05 10:12:19;;;;;;;1.90;0.70;;;;;;;;;;5105222;27;41427;-75
2024/01/05 10:14:47;;;;;;;2.40;0.75;;;;;;;;;;5100070;27;40499;-71
2024/01/05 10:17:15;;;;;;;1.95;0.80;;;;;;;;;;5113313;27;43521;-71
2024/01/05 10:19:44;;;;;;;3.42;0.77;;;;;;;;;;5119265;27;39978;-70
2024/01/05 10:22:12;;;;;;;2.75;0.85;;;;;;;;;;5102955;27;41020;-69
2024/01/05 10:24:41;;;;;;;1.75;0.90;;;;;;;;;;5111676;27;41609;-70
2024/01/05 10:27:10;;;;;;;2.80;0.50;;;;;;;;;;5107580;27;41848;-69
2024/01/05 10:29:39;;;;;;;0.88;0.50;;;;;;;;;;5108111;27;42043;-69
2024/01/05 10:32:10;;;;;;;1.73;0.60;;;;;;;;;;5111751;27;42052;-70
2024/01/05 10:34:39;;;;;;;1.65;0.50;;;;;;;;;;5108694;27;40346;-69
2024/01/05 10:37:07;;;;;;;3.22;0.70;;;;;;;;;;5107513;27;41030;-71
2024/01/05 10:39:35;;;;;;;2.45;0.80;;;;;;;;;;5102560;27;40476;-71
2024/01/05 10:42:19;;;;;;;2.28;0.40;;;;;;;;;;5107045;27;41274;-70
2024/01/05 10:44:48;;;;;;;3.20;0.65;;;;;;;;;;5103054;27;41911;-70
2024/01/05 10:47:16;;;;;;;0.98;0.57;;;;;;;;;;5105792;27;40868;-71
2024/01/05 10:49:45;;;;;;;5.20;0.60;;;;;;;;;;5106563;28;41872;-71
2024/01/05 10:52:13;;;;;;;1.73;0.50;;;;;;;;;;5108214;27;42068;-70
2024/01/05 10:54:41;;;;;;;1.13;0.40;;;;;;;;;;5107266;27;40281;-71
2024/01/05 10:57:09;;;;;;;2.20;0.52;;;;;;;;;;5107351;27;42652;-70
2024/01/05 10:59:38;;;;;;;1.35;0.60;;;;;;;;;;5107804;27;43091;-71
2024/01/05 11:02:10;;;;;;;1.92;0.60;;;;;;;;;;5108913;27;41322;-71
2024/01/05 11:04:39;;;;;;;1.17;0.60;;;;;;;;;;5108060;27;20252;-71
2024/01/05 11:07:09;;;;;;;1.70;0.63;;;;;;;;;;5093046;27;40395;-70
2024/01/05 11:09:37;;;;;;;0.75;0.45;;;;;;;;;;5108418;27;41540;-70
2024/01/05 11:12:17;;;;;;;2.05;0.55;;;;;;;;;;5106459;27;43194;-69
2024/01/05 11:14:53;;;;;;;2.15;0.50;;;;;;;;;;5107486;27;40561;-70
2024/01/05 11:17:35;;;;;;;1.63;0.52;;;;;;;;;;5104005;28;41689;-70
2024/01/05 11:20:10;;;;;;;1.63;0.80;;;;;;;;;;5107372;27;42712;-71
2024/01/05 11:22:40;;;;;;;1.52;0.50;;;;;;;;;;5091697;27;42678;-70
2024/01/05 11:25:08;;;;;;;0.88;0.50;;;;;;;;;;5107427;27;41743;-70
2024/01/05 11:27:37;;;;;;;1.08;0.50;;;;;;;;;;5098104;27;40360;-71
2024/01/05 11:30:08;;;;;;;1.67;0.70;;;;;;;;;;5106329;27;42455;-74
2024/01/05 11:32:37;;;;;;;0.90;0.57;;;;;;;;;;5111816;27;41940;-71
2024/01/05 11:35:24;;;;;;;1.85;0.73;;;;;;;;;;5117177;27;40286;-73
2024/01/05 11:37:52;;;;;;;0.88;0.65;;;;;;;;;;5090344;27;41400;-70
2024/01/05 11:40:27;;;;;;;0.77;0.40;;;;;;;;;;5105410;27;42528;-72
2024/01/05 11:42:57;;;;;;;1.15;0.50;;;;;;;;;;5104367;27;41936;-69
2024/01/05 11:45:48;;;;;;;1.98;0.57;;;;;;;;;;5106842;27;42786;-71
2024/01/05 11:48:31;;;;;;;3.05;0.57;;;;;;;;;;5106247;27;39871;-71
2024/01/05 11:50:59;;;;;;;1.15;0.60;;;;;;;;;;5106732;27;41189;-71
2024/01/05 11:53:28;;;;;;;2.35;0.98;;;;;;;;;;5093260;27;41856;-71
2024/01/05 11:55:56;;;;;;;3.50;0.40;;;;;;;;;;5088832;28;38977;-73
2024/01/05 11:58:27;;;;;;;5.80;0.50;;;;;;;;;;5108332;27;41468;-73
2024/01/05 12:00:57;;;;;;;2.22;0.47;;;;;;;;;;5106899;27;42816;-72
2024/01/05 12:03:25;;;;;;;2.75;0.65;;;;;;;;;;5107266;27;40494;-74
2024/01/05 12:05:55;;;;;;;2.03;0.80;;;;;;;;;;5107725;27;41021;-71
2024/01/05 12:08:23;;;;;;;1.25;0.60;;;;;;;;;;5101841;27;41267;-72
2024/01/05 12:10:52;;;;;;;4.60;0.70;;;;;;;;;;5104807;27;42584;-72
2024/01/05 12:13:22;;;;;;;1.42;0.50;;;;;;;;;;5106861;27;41652;-72
2024/01/05 12:15:51;;;;;;;4.53;0.60;;;;;;;;;;5121050;27;41486;-73
2024/01/05 12:18:30;;;;;;;0.90;0.52;;;;;;;;;;5107057;27;42248;-71
2024/01/05 12:21:06;;;;;;;2.47;0.63;;;;;;;;;;5102592;28;42197;-75
2024/01/05 12:23:35;;;;;;;6.00;0.60;;;;;;;;;;5108076;28;42067;-75
2024/01/05 12:26:04;;;;;;;1.20;0.70;;;;;;;;;;5106713;27;41169;-74
2024/01/05 12:28:33;;;;;;;2.72;0.75;;;;;;;;;;5106712;27;43209;-75
2024/01/05 12:31:01;;;;;;;3.45;0.60;;;;;;;;;;5109597;27;42336;-77
2024/01/05 12:33:31;;;;;;;1.60;0.47;;;;;;;;;;5111599;27;42103;-75
2024/01/05 12:36:00;;;;;;;5.18;0.70;;;;;;;;;;5109869;27;40263;-75
2024/01/05 12:38:28;;;;;;;0.90;0.60;;;;;;;;;;5111367;27;42389;-77
2024/01/05 12:41:04;;;;;;;1.80;0.60;;;;;;;;;;5112000;27;42057;-76
2024/01/05 12:43:32;;;;;;;3.28;0.73;;;;;;;;;;5098582;27;41252;-75
2024/01/05 12:46:03;;;;;;;1.45;0.55;;;;;;;;;;5110403;27;41673;-77
2024/01/05 12:48:33;;;;;;;3.50;0.70;;;;;;;;;;5094346;28;41840;-76
2024/01/05 12:51:05;;;;;;;1.58;0.65;;;;;;;;;;5110396;27;40184;-76
2024/01/05 12:53:33;;;;;;;1.45;0.73;;;;;;;;;;5111186;27;42462;-75
2024/01/05 12:56:08;;;;;;;0.77;0.60;;;;;;;;;;5114715;27;40915;-73
2024/01/05 12:58:39;;;;;;;2.75;0.70;;;;;;;;;;5114751;27;41674;-73
2024/01/05 13:01:07;;;;;;;2.83;0.60;;;;;;;;;;5108867;27;43061;-72
2024/01/05 13:03:37;;;;;;;1.23;0.88;;;;;;;;;;5110431;27;40266;-71
2024/01/05 13:06:08;;;;;;;4.53;0.68;;;;;;;;;;5109734;27;41470;-73
2024/01/05 13:08:36;;;;;;;3.45;0.70;;;;;;;;;;5106959;27;41884;-74
2024/01/05 13:11:06;;;;;;;1.98;0.50;;;;;;;;;;5109656;27;40340;-74
2024/01/05 13:13:34;;;;;;;1.63;0.70;;;;;;;;;;5109835;27;41590;-73
2024/01/05 13:16:02;;;;;;;2.70;0.60;;;;;;;;;;5110127;27;40584;-73
2024/01/05 13:18:30;;;;;;;1.38;0.70;;;;;;;;;;5109058;28;41868;-74
2024/01/05 13:20:59;;;;;;;0.88;0.50;;;;;;;;;;5103523;27;41704;-74
2024/01/05 13:23:29;;;;;;;1.65;0.60;;;;;;;;;;5100996;27;43581;-73
2024/01/05 13:25:57;;;;;;;1.33;0.60;;;;;;;;;;5108661;27;41636;-73
2024/01/05 13:28:25;;;;;;;0.60;0.60;;;;;;;;;;5107188;27;41821;-71
2024/01/05 13:30:53;;;;;;;1.08;0.68;;;;;;;;;;5114672;27;40974;-71
2024/01/05 13:33:21;;;;;;;1.48;0.77;;;;;;;;;;5109822;28;42391;-74
2024/01/05 13:35:49;;;;;;;1.13;0.52;;;;;;;;;;5109074;27;40347;-74
2024/01/05 13:38:18;;;;;;;3.22;1.13;;;;;;;;;;5109908;27;42353;-73
2024/01/05 13:40:46;;;;;;;3.92;0.50;;;;;;;;;;5106870;27;41971;-77
2024/01/05 13:43:14;;;;;;;5.43;0.63;;;;;;;;;;5109593;27;39970;-73
2024/01/05 13:45:42;;;;;;;2.83;0.70;;;;;;;;;;5108692;27;43168;-74
2024/01/05 13:48:10;;;;;;;3.85;0.70;;;;;;;;;;5106377;27;42131;-75
2024/01/05 13:50:38;;;;;;;10.27;0.80;;;;;;;;;;5103347;27;40629;-75
2024/01/05 13:53:10;;;;;;;6.60;1.00;;;;;;;;;;5106915;27;41415;-73
2024/01/05 13:55:40;;;;;;;2.78;0.93;;;;;;;;;;5109304;27;43253;-74
2024/01/05 13:58:08;;;;;;;9.93;0.93;;;;;;;;;;5106821;27;42212;-75
2024/01/05 14:00:36;;;;;;;2.88;0.90;;;;;;;;;;5107408;27;43142;-74
2024/01/05 14:03:04;;;;;;;5.40;1.20;;;;;;;;;;5108413;27;40030;-74
2024/01/05 14:05:32;;;;;;;4.50;1.02;;;;;;;;;;5112145;27;41193;-75
2024/01/05 14:08:00;;;;;;;6.55;0.80;;;;;;;;;;5100663;27;42588;-70
2024/01/05 14:10:28;;;;;;;2.55;0.95;;;;;;;;;;5106577;27;38582;-70
2024/01/05 14:12:57;;;;;;;5.50;1.10;;;;;;;;;;5108291;27;41668;-72
2024/01/05 14:15:27;;;;;;;9.80;1.10;;;;;;;;;;5107706;27;42721;-72
2024/01/05 14:17:55;;;;;;;5.10;0.80;;;;;;;;;;5107853;27;40945;-71
2024/01/05 14:20:23;;;;;;;3.15;0.60;;;;;;;;;;5107526;27;43130;-72
2024/01/05 14:22:51;;;;;;;6.80;0.90;;;;;;;;;;5108484;28;41322;-73
2024/01/05 14:25:19;;;;;;;3.15;0.90;;;;;;;;;;5107994;27;41759;-72
2024/01/05 14:27:47;;;;;;;13.75;1.10;;;;;;;;;;5107618;28;42108;-72
2024/01/05 14:30:17;;;;;;;11.75;1.80;;;;;;;;;;5107623;27;40581;-71
2024/01/05 14:32:47;;;;;;;11.00;1.35;;;;;;;;;;5106727;27;41715;-73
2024/01/05 14:35:15;;;;;;;10.55;2.17;;;;;;;;;;5110801;27;41584;-71
2024/01/05 14:37:43;;;;;;;18.58;1.92;;;;;;;;;;5109167;27;42270;-72
2024/01/05 14:40:12;;;;;;;15.18;1.88;;;;;;;;;;5108496;27;41317;-71
2024/01/05 14:42:39;;;;;;;17.77;1.48;;;;;;;;;;5107249;27;41394;-70
2024/01/05 14:45:08;;;;;;;7.03;1.58;;;;;;;;;;5089891;28;41454;-70
2024/01/05 14:47:38;;;;;;;13.48;1.35;;;;;;;;;;5108303;27;41886;-71
2024/01/05 14:50:10;;;;;;;23.30;1.65;;;;;;;;;;5103810;28;40242;-71
2024/01/05 14:52:37;;;;;;;7.55;1.13;;;;;;;;;;5106790;27;41351;-71